sensor_id;sensor_type;location;lat;lon;timestamp;P1;durP1;ratioP1;P2;durP2;ratioP2
55312;SDS011;46892;45.668;11.756;2024-02-26T00:01:41;9.33;;;6.03;;
55312;SDS011;46892;45.668;11.756;2024-02-26T00:04:08;9.23;;;5.93;;
55312;SDS011;46892;45.668;11.756;2024-02-26T00:06:34;8.60;;;5.00;;
55312;SDS011;46892;45.668;11.756;2024-02-26T00:09:00;12.23;;;7.17;;
55312;SDS011;46892;45.668;11.756;2024-02-26T00:11:27;8.73;;;5.93;;
55312;SDS011;46892;45.668;11.756;2024-02-26T00:13:53;12.20;;;7.50;;
55312;SDS011;46892;45.668;11.756;2024-02-26T00:16:19;11.57;;;7.63;;
55312;SDS011;46892;45.668;11.756;2024-02-26T00:18:44;13.37;;;8.50;;
55312;SDS011;46892;45.668;11.756;2024-02-26T00:21:11;14.37;;;9.27;;
55312;SDS011;46892;45.668;11.756;2024-02-26T00:23:37;16.43;;;9.40;;
55312;SDS011;46892;45.668;11.756;2024-02-26T00:26:02;13.30;;;8.87;;
55312;SDS011;46892;45.668;11.756;2024-02-26T00:28:28;12.47;;;8.77;;
55312;SDS011;46892;45.668;11.756;2024-02-26T00:30:54;12.47;;;7.67;;
55312;SDS011;46892;45.668;11.756;2024-02-26T00:33:21;13.70;;;8.70;;
55312;SDS011;46892;45.668;11.756;2024-02-26T00:35:47;14.53;;;9.30;;
55312;SDS011;46892;45.668;11.756;2024-02-26T00:38:14;15.60;;;9.33;;
55312;SDS011;46892;45.668;11.756;2024-02-26T00:40:39;15.53;;;9.63;;
55312;SDS011;46892;45.668;11.756;2024-02-26T00:43:08;13.17;;;8.30;;
55312;SDS011;46892;45.668;11.756;2024-02-26T00:45:34;13.23;;;8.30;;
55312;SDS011;46892;45.668;11.756;2024-02-26T00:47:59;12.63;;;7.83;;
55312;SDS011;46892;45.668;11.756;2024-02-26T00:50:29;14.25;;;8.65;;
55312;SDS011;46892;45.668;11.756;2024-02-26T00:52:55;13.23;;;9.30;;
55312;SDS011;46892;45.668;11.756;2024-02-26T00:55:21;13.60;;;9.90;;
55312;SDS011;46892;45.668;11.756;2024-02-26T00:57:47;14.00;;;8.80;;
55312;SDS011;46892;45.668;11.756;2024-02-26T01:00:13;11.40;;;7.90;;
55312;SDS011;46892;45.668;11.756;2024-02-26T01:02:39;12.87;;;8.83;;
55312;SDS011;46892;45.668;11.756;2024-02-26T01:05:06;12.63;;;8.33;;
55312;SDS011;46892;45.668;11.756;2024-02-26T01:07:34;10.87;;;7.87;;
55312;SDS011;46892;45.668;11.756;2024-02-26T01:10:04;13.13;;;8.83;;
55312;SDS011;46892;45.668;11.756;2024-02-26T01:12:30;11.65;;;8.00;;
55312;SDS011;46892;45.668;11.756;2024-02-26T01:14:57;14.87;;;10.27;;
55312;SDS011;46892;45.668;11.756;2024-02-26T01:17:23;18.10;;;11.90;;
55312;SDS011;46892;45.668;11.756;2024-02-26T01:19:49;16.33;;;10.23;;
55312;SDS011;46892;45.668;11.756;2024-02-26T01:22:14;10.17;;;7.83;;
55312;SDS011;46892;45.668;11.756;2024-02-26T01:24:40;15.77;;;9.07;;
55312;SDS011;46892;45.668;11.756;2024-02-26T01:27:06;13.07;;;8.40;;
55312;SDS011;46892;45.668;11.756;2024-02-26T01:29:33;12.20;;;7.43;;
55312;SDS011;46892;45.668;11.756;2024-02-26T01:31:58;10.83;;;7.90;;
55312;SDS011;46892;45.668;11.756;2024-02-26T01:34:24;10.67;;;7.50;;
55312;SDS011;46892;45.668;11.756;2024-02-26T01:36:50;12.77;;;8.20;;
55312;SDS011;46892;45.668;11.756;2024-02-26T01:39:15;11.20;;;8.10;;
55312;SDS011;46892;45.668;11.756;2024-02-26T01:41:41;12.67;;;9.63;;
55312;SDS011;46892;45.668;11.756;2024-02-26T01:44:07;16.70;;;13.43;;
55312;SDS011;46892;45.668;11.756;2024-02-26T01:46:33;14.40;;;11.80;;
55312;SDS011;46892;45.668;11.756;2024-02-26T01:49:01;15.70;;;11.63;;
55312;SDS011;46892;45.668;11.756;2024-02-26T01:51:27;11.17;;;8.47;;
55312;SDS011;46892;45.668;11.756;2024-02-26T01:53:53;14.17;;;9.00;;
55312;SDS011;46892;45.668;11.756;2024-02-26T01:56:19;10.43;;;8.90;;
55312;SDS011;46892;45.668;11.756;2024-02-26T01:58:47;12.43;;;10.00;;
55312;SDS011;46892;45.668;11.756;2024-02-26T02:01:14;13.17;;;9.63;;
55312;SDS011;46892;45.668;11.756;2024-02-26T02:03:43;8.70;;;6.67;;
55312;SDS011;46892;45.668;11.756;2024-02-26T02:06:10;10.30;;;6.73;;
55312;SDS011;46892;45.668;11.756;2024-02-26T02:08:37;9.87;;;7.67;;
55312;SDS011;46892;45.668;11.756;2024-02-26T02:11:03;11.20;;;7.23;;
55312;SDS011;46892;45.668;11.756;2024-02-26T02:13:29;9.37;;;6.23;;
55312;SDS011;46892;45.668;11.756;2024-02-26T02:15:54;10.27;;;6.67;;
55312;SDS011;46892;45.668;11.756;2024-02-26T02:18:20;15.87;;;7.17;;
55312;SDS011;46892;45.668;11.756;2024-02-26T02:20:46;11.30;;;6.73;;
55312;SDS011;46892;45.668;11.756;2024-02-26T02:23:11;7.70;;;5.53;;
55312;SDS011;46892;45.668;11.756;2024-02-26T02:25:37;8.47;;;5.87;;
55312;SDS011;46892;45.668;11.756;2024-02-26T02:28:03;9.77;;;6.30;;
55312;SDS011;46892;45.668;11.756;2024-02-26T02:30:30;9.70;;;6.10;;
55312;SDS011;46892;45.668;11.756;2024-02-26T02:32:58;9.03;;;6.00;;
55312;SDS011;46892;45.668;11.756;2024-02-26T02:35:24;10.17;;;6.70;;
55312;SDS011;46892;45.668;11.756;2024-02-26T02:37:53;10.40;;;7.00;;
55312;SDS011;46892;45.668;11.756;2024-02-26T02:40:19;10.93;;;7.23;;
55312;SDS011;46892;45.668;11.756;2024-02-26T02:42:45;11.00;;;6.83;;
55312;SDS011;46892;45.668;11.756;2024-02-26T02:45:11;8.87;;;6.57;;
55312;SDS011;46892;45.668;11.756;2024-02-26T02:47:36;10.33;;;6.60;;
55312;SDS011;46892;45.668;11.756;2024-02-26T02:50:05;9.43;;;6.90;;
55312;SDS011;46892;45.668;11.756;2024-02-26T02:52:31;9.80;;;6.83;;
55312;SDS011;46892;45.668;11.756;2024-02-26T02:54:57;9.47;;;7.20;;
55312;SDS011;46892;45.668;11.756;2024-02-26T02:57:23;10.47;;;7.00;;
55312;SDS011;46892;45.668;11.756;2024-02-26T02:59:49;9.60;;;6.93;;
55312;SDS011;46892;45.668;11.756;2024-02-26T03:02:15;8.90;;;5.90;;
55312;SDS011;46892;45.668;11.756;2024-02-26T03:04:41;8.27;;;6.33;;
55312;SDS011;46892;45.668;11.756;2024-02-26T03:07:06;8.70;;;6.13;;
55312;SDS011;46892;45.668;11.756;2024-02-26T03:09:32;7.57;;;5.83;;
55312;SDS011;46892;45.668;11.756;2024-02-26T03:11:58;9.30;;;6.70;;
55312;SDS011;46892;45.668;11.756;2024-02-26T03:14:23;8.37;;;6.00;;
55312;SDS011;46892;45.668;11.756;2024-02-26T03:16:52;8.50;;;6.10;;
55312;SDS011;46892;45.668;11.756;2024-02-26T03:19:19;6.20;;;4.50;;
55312;SDS011;46892;45.668;11.756;2024-02-26T03:21:45;6.77;;;4.73;;
55312;SDS011;46892;45.668;11.756;2024-02-26T03:24:11;8.83;;;5.90;;
55312;SDS011;46892;45.668;11.756;2024-02-26T03:26:37;10.13;;;6.43;;
55312;SDS011;46892;45.668;11.756;2024-02-26T03:29:03;9.80;;;6.23;;
55312;SDS011;46892;45.668;11.756;2024-02-26T03:31:29;10.00;;;6.77;;
55312;SDS011;46892;45.668;11.756;2024-02-26T03:33:55;9.73;;;6.27;;
55312;SDS011;46892;45.668;11.756;2024-02-26T03:36:21;10.93;;;6.57;;
55312;SDS011;46892;45.668;11.756;2024-02-26T03:38:47;13.03;;;7.13;;
55312;SDS011;46892;45.668;11.756;2024-02-26T03:41:13;10.37;;;7.10;;
55312;SDS011;46892;45.668;11.756;2024-02-26T03:43:39;8.80;;;6.80;;
55312;SDS011;46892;45.668;11.756;2024-02-26T03:46:08;10.77;;;7.30;;
55312;SDS011;46892;45.668;11.756;2024-02-26T03:48:36;10.87;;;6.80;;
55312;SDS011;46892;45.668;11.756;2024-02-26T03:51:02;8.87;;;6.63;;
55312;SDS011;46892;45.668;11.756;2024-02-26T03:53:28;11.00;;;7.43;;
55312;SDS011;46892;45.668;11.756;2024-02-26T03:55:54;10.57;;;6.77;;
55312;SDS011;46892;45.668;11.756;2024-02-26T03:58:20;10.30;;;7.17;;
55312;SDS011;46892;45.668;11.756;2024-02-26T04:00:46;10.63;;;6.87;;
55312;SDS011;46892;45.668;11.756;2024-02-26T04:03:15;9.83;;;7.07;;
55312;SDS011;46892;45.668;11.756;2024-02-26T04:05:41;9.30;;;6.93;;
55312;SDS011;46892;45.668;11.756;2024-02-26T04:08:06;9.73;;;6.70;;
55312;SDS011;46892;45.668;11.756;2024-02-26T04:10:33;9.70;;;6.70;;
55312;SDS011;46892;45.668;11.756;2024-02-26T04:13:04;9.80;;;6.67;;
55312;SDS011;46892;45.668;11.756;2024-02-26T04:15:30;10.67;;;7.63;;
55312;SDS011;46892;45.668;11.756;2024-02-26T04:17:56;11.40;;;7.07;;
55312;SDS011;46892;45.668;11.756;2024-02-26T04:20:22;11.57;;;9.60;;
55312;SDS011;46892;45.668;11.756;2024-02-26T04:22:48;10.53;;;7.40;;
55312;SDS011;46892;45.668;11.756;2024-02-26T04:25:14;9.63;;;6.70;;
55312;SDS011;46892;45.668;11.756;2024-02-26T04:27:40;10.77;;;6.80;;
55312;SDS011;46892;45.668;11.756;2024-02-26T04:30:06;9.93;;;7.53;;
55312;SDS011;46892;45.668;11.756;2024-02-26T04:32:33;12.00;;;8.00;;
55312;SDS011;46892;45.668;11.756;2024-02-26T04:34:59;11.87;;;8.00;;
55312;SDS011;46892;45.668;11.756;2024-02-26T04:37:26;9.57;;;6.93;;
55312;SDS011;46892;45.668;11.756;2024-02-26T04:39:57;8.63;;;6.37;;
55312;SDS011;46892;45.668;11.756;2024-02-26T04:42:24;9.27;;;6.30;;
55312;SDS011;46892;45.668;11.756;2024-02-26T04:44:50;7.80;;;5.83;;
55312;SDS011;46892;45.668;11.756;2024-02-26T04:47:15;10.43;;;6.77;;
55312;SDS011;46892;45.668;11.756;2024-02-26T04:49:41;9.80;;;6.80;;
55312;SDS011;46892;45.668;11.756;2024-02-26T04:52:07;12.10;;;7.87;;
55312;SDS011;46892;45.668;11.756;2024-02-26T04:54:33;10.83;;;6.90;;
55312;SDS011;46892;45.668;11.756;2024-02-26T04:56:58;10.40;;;7.70;;
55312;SDS011;46892;45.668;11.756;2024-02-26T04:59:24;9.53;;;8.07;;
55312;SDS011;46892;45.668;11.756;2024-02-26T05:01:50;12.80;;;8.70;;
55312;SDS011;46892;45.668;11.756;2024-02-26T05:04:17;10.57;;;8.17;;
55312;SDS011;46892;45.668;11.756;2024-02-26T05:06:44;11.17;;;7.90;;
55312;SDS011;46892;45.668;11.756;2024-02-26T05:09:09;10.23;;;8.33;;
55312;SDS011;46892;45.668;11.756;2024-02-26T05:11:35;14.80;;;9.07;;
55312;SDS011;46892;45.668;11.756;2024-02-26T05:14:02;10.37;;;8.13;;
55312;SDS011;46892;45.668;11.756;2024-02-26T05:16:28;11.10;;;8.43;;
55312;SDS011;46892;45.668;11.756;2024-02-26T05:18:56;12.23;;;8.57;;
55312;SDS011;46892;45.668;11.756;2024-02-26T05:21:21;12.53;;;8.13;;
55312;SDS011;46892;45.668;11.756;2024-02-26T05:23:47;10.33;;;8.07;;
55312;SDS011;46892;45.668;11.756;2024-02-26T05:26:19;10.67;;;7.13;;
55312;SDS011;46892;45.668;11.756;2024-02-26T05:28:46;11.17;;;7.77;;
55312;SDS011;46892;45.668;11.756;2024-02-26T05:31:15;12.57;;;7.80;;
55312;SDS011;46892;45.668;11.756;2024-02-26T05:33:41;9.60;;;8.20;;
55312;SDS011;46892;45.668;11.756;2024-02-26T05:36:07;13.53;;;8.47;;
55312;SDS011;46892;45.668;11.756;2024-02-26T05:38:33;10.80;;;7.43;;
55312;SDS011;46892;45.668;11.756;2024-02-26T05:40:59;10.80;;;7.40;;
55312;SDS011;46892;45.668;11.756;2024-02-26T05:43:28;10.43;;;7.87;;
55312;SDS011;46892;45.668;11.756;2024-02-26T05:45:54;9.90;;;7.67;;
55312;SDS011;46892;45.668;11.756;2024-02-26T05:48:20;11.07;;;7.93;;
55312;SDS011;46892;45.668;11.756;2024-02-26T05:50:46;12.13;;;7.73;;
55312;SDS011;46892;45.668;11.756;2024-02-26T05:53:12;9.90;;;7.87;;
55312;SDS011;46892;45.668;11.756;2024-02-26T05:55:38;10.97;;;8.60;;
55312;SDS011;46892;45.668;11.756;2024-02-26T05:58:04;16.30;;;8.30;;
55312;SDS011;46892;45.668;11.756;2024-02-26T06:00:30;11.43;;;8.10;;
55312;SDS011;46892;45.668;11.756;2024-02-26T06:02:56;11.27;;;8.53;;
55312;SDS011;46892;45.668;11.756;2024-02-26T06:05:23;14.40;;;8.77;;
55312;SDS011;46892;45.668;11.756;2024-02-26T06:07:49;13.53;;;7.83;;
55312;SDS011;46892;45.668;11.756;2024-02-26T06:10:15;13.30;;;8.57;;
55312;SDS011;46892;45.668;11.756;2024-02-26T06:12:41;12.37;;;8.63;;
55312;SDS011;46892;45.668;11.756;2024-02-26T06:15:07;12.53;;;9.07;;
55312;SDS011;46892;45.668;11.756;2024-02-26T06:17:33;22.70;;;10.83;;
55312;SDS011;46892;45.668;11.756;2024-02-26T06:19:59;15.37;;;10.90;;
55312;SDS011;46892;45.668;11.756;2024-02-26T06:22:25;13.87;;;9.80;;
55312;SDS011;46892;45.668;11.756;2024-02-26T06:24:51;13.93;;;9.30;;
55312;SDS011;46892;45.668;11.756;2024-02-26T06:27:17;13.70;;;8.90;;
55312;SDS011;46892;45.668;11.756;2024-02-26T06:29:43;11.77;;;8.97;;
55312;SDS011;46892;45.668;11.756;2024-02-26T06:32:09;10.77;;;8.40;;
55312;SDS011;46892;45.668;11.756;2024-02-26T06:34:35;10.33;;;7.93;;
55312;SDS011;46892;45.668;11.756;2024-02-26T06:37:00;11.07;;;7.63;;
55312;SDS011;46892;45.668;11.756;2024-02-26T06:39:28;10.13;;;8.13;;
55312;SDS011;46892;45.668;11.756;2024-02-26T06:41:54;12.30;;;8.33;;
55312;SDS011;46892;45.668;11.756;2024-02-26T06:46:51;13.13;;;8.43;;
55312;SDS011;46892;45.668;11.756;2024-02-26T06:49:17;13.07;;;8.90;;
55312;SDS011;46892;45.668;11.756;2024-02-26T06:51:42;11.27;;;9.10;;
55312;SDS011;46892;45.668;11.756;2024-02-26T06:54:08;16.90;;;10.90;;
55312;SDS011;46892;45.668;11.756;2024-02-26T06:56:34;19.20;;;11.40;;
55312;SDS011;46892;45.668;11.756;2024-02-26T06:59:00;14.83;;;9.70;;
55312;SDS011;46892;45.668;11.756;2024-02-26T07:01:26;14.63;;;10.57;;
55312;SDS011;46892;45.668;11.756;2024-02-26T07:03:51;16.83;;;10.97;;
55312;SDS011;46892;45.668;11.756;2024-02-26T07:06:17;14.80;;;10.13;;
55312;SDS011;46892;45.668;11.756;2024-02-26T07:08:43;13.90;;;11.50;;
55312;SDS011;46892;45.668;11.756;2024-02-26T07:11:11;17.97;;;11.90;;
55312;SDS011;46892;45.668;11.756;2024-02-26T07:13:38;14.93;;;10.73;;
55312;SDS011;46892;45.668;11.756;2024-02-26T07:16:04;14.87;;;10.97;;
55312;SDS011;46892;45.668;11.756;2024-02-26T07:18:30;13.30;;;10.60;;
55312;SDS011;46892;45.668;11.756;2024-02-26T07:20:56;14.53;;;10.83;;
55312;SDS011;46892;45.668;11.756;2024-02-26T07:23:22;14.53;;;11.87;;
55312;SDS011;46892;45.668;11.756;2024-02-26T07:25:48;13.80;;;11.00;;
55312;SDS011;46892;45.668;11.756;2024-02-26T07:28:15;15.93;;;11.70;;
55312;SDS011;46892;45.668;11.756;2024-02-26T07:30:41;15.27;;;11.03;;
55312;SDS011;46892;45.668;11.756;2024-02-26T07:33:07;16.97;;;12.07;;
55312;SDS011;46892;45.668;11.756;2024-02-26T07:35:32;15.03;;;11.67;;
55312;SDS011;46892;45.668;11.756;2024-02-26T07:37:58;16.77;;;10.97;;
55312;SDS011;46892;45.668;11.756;2024-02-26T07:40:24;17.07;;;11.17;;
55312;SDS011;46892;45.668;11.756;2024-02-26T07:42:50;13.00;;;9.23;;
55312;SDS011;46892;45.668;11.756;2024-02-26T07:45:16;16.07;;;10.10;;
55312;SDS011;46892;45.668;11.756;2024-02-26T07:47:45;12.20;;;10.53;;
55312;SDS011;46892;45.668;11.756;2024-02-26T07:50:11;14.53;;;10.63;;
55312;SDS011;46892;45.668;11.756;2024-02-26T07:52:37;13.47;;;10.77;;
55312;SDS011;46892;45.668;11.756;2024-02-26T07:55:03;14.40;;;10.70;;
55312;SDS011;46892;45.668;11.756;2024-02-26T07:57:29;14.97;;;10.53;;
55312;SDS011;46892;45.668;11.756;2024-02-26T07:59:56;13.07;;;9.63;;
55312;SDS011;46892;45.668;11.756;2024-02-26T08:02:22;13.13;;;10.07;;
55312;SDS011;46892;45.668;11.756;2024-02-26T08:04:47;12.83;;;9.50;;
55312;SDS011;46892;45.668;11.756;2024-02-26T08:07:13;14.00;;;9.83;;
55312;SDS011;46892;45.668;11.756;2024-02-26T08:09:39;15.00;;;10.47;;
55312;SDS011;46892;45.668;11.756;2024-02-26T08:12:05;14.37;;;10.63;;
55312;SDS011;46892;45.668;11.756;2024-02-26T08:14:31;16.70;;;10.23;;
55312;SDS011;46892;45.668;11.756;2024-02-26T08:16:57;12.73;;;9.43;;
55312;SDS011;46892;45.668;11.756;2024-02-26T08:19:24;12.37;;;9.97;;
55312;SDS011;46892;45.668;11.756;2024-02-26T08:21:50;13.70;;;9.37;;
55312;SDS011;46892;45.668;11.756;2024-02-26T08:24:15;13.00;;;9.33;;
55312;SDS011;46892;45.668;11.756;2024-02-26T08:26:41;11.47;;;8.33;;
55312;SDS011;46892;45.668;11.756;2024-02-26T08:29:07;12.70;;;8.10;;
55312;SDS011;46892;45.668;11.756;2024-02-26T08:31:33;16.10;;;8.03;;
55312;SDS011;46892;45.668;11.756;2024-02-26T08:34:02;11.00;;;8.03;;
55312;SDS011;46892;45.668;11.756;2024-02-26T08:36:33;9.70;;;6.77;;
55312;SDS011;46892;45.668;11.756;2024-02-26T08:39:01;8.73;;;6.60;;
55312;SDS011;46892;45.668;11.756;2024-02-26T08:41:26;10.00;;;6.60;;
55312;SDS011;46892;45.668;11.756;2024-02-26T08:43:53;9.97;;;6.87;;
55312;SDS011;46892;45.668;11.756;2024-02-26T08:46:19;9.07;;;6.10;;
55312;SDS011;46892;45.668;11.756;2024-02-26T08:48:45;8.90;;;5.77;;
55312;SDS011;46892;45.668;11.756;2024-02-26T08:51:11;7.67;;;5.60;;
55312;SDS011;46892;45.668;11.756;2024-02-26T08:53:38;9.30;;;5.47;;
55312;SDS011;46892;45.668;11.756;2024-02-26T08:56:04;9.53;;;7.33;;
55312;SDS011;46892;45.668;11.756;2024-02-26T08:58:30;8.17;;;5.83;;
55312;SDS011;46892;45.668;11.756;2024-02-26T09:00:56;8.27;;;5.87;;
55312;SDS011;46892;45.668;11.756;2024-02-26T09:03:22;8.83;;;6.27;;
55312;SDS011;46892;45.668;11.756;2024-02-26T09:05:48;8.77;;;5.27;;
55312;SDS011;46892;45.668;11.756;2024-02-26T09:08:14;11.80;;;5.57;;
55312;SDS011;46892;45.668;11.756;2024-02-26T09:10:40;8.20;;;5.20;;
55312;SDS011;46892;45.668;11.756;2024-02-26T09:13:06;9.87;;;5.90;;
55312;SDS011;46892;45.668;11.756;2024-02-26T09:15:32;8.90;;;5.70;;
55312;SDS011;46892;45.668;11.756;2024-02-26T09:17:58;9.77;;;6.37;;
55312;SDS011;46892;45.668;11.756;2024-02-26T09:20:24;8.77;;;5.80;;
55312;SDS011;46892;45.668;11.756;2024-02-26T09:22:49;8.97;;;5.73;;
55312;SDS011;46892;45.668;11.756;2024-02-26T09:25:16;8.50;;;5.77;;
55312;SDS011;46892;45.668;11.756;2024-02-26T09:27:42;12.27;;;5.93;;
55312;SDS011;46892;45.668;11.756;2024-02-26T09:30:10;10.83;;;6.27;;
55312;SDS011;46892;45.668;11.756;2024-02-26T09:32:37;7.87;;;6.03;;
55312;SDS011;46892;45.668;11.756;2024-02-26T09:35:03;10.00;;;5.83;;
55312;SDS011;46892;45.668;11.756;2024-02-26T09:37:29;10.07;;;6.13;;
55312;SDS011;46892;45.668;11.756;2024-02-26T09:39:55;8.27;;;5.63;;
55312;SDS011;46892;45.668;11.756;2024-02-26T09:42:21;9.33;;;5.77;;
55312;SDS011;46892;45.668;11.756;2024-02-26T09:44:51;7.88;;;5.82;;
55312;SDS011;46892;45.668;11.756;2024-02-26T09:47:19;9.97;;;6.43;;
55312;SDS011;46892;45.668;11.756;2024-02-26T09:49:47;9.33;;;5.80;;
55312;SDS011;46892;45.668;11.756;2024-02-26T09:52:14;8.33;;;6.03;;
55312;SDS011;46892;45.668;11.756;2024-02-26T09:54:40;10.00;;;6.60;;
55312;SDS011;46892;45.668;11.756;2024-02-26T09:57:08;8.80;;;5.80;;
55312;SDS011;46892;45.668;11.756;2024-02-26T09:59:40;10.97;;;6.57;;
55312;SDS011;46892;45.668;11.756;2024-02-26T10:02:13;8.90;;;6.10;;
55312;SDS011;46892;45.668;11.756;2024-02-26T10:04:40;8.57;;;6.60;;
55312;SDS011;46892;45.668;11.756;2024-02-26T10:07:10;7.73;;;5.90;;
55312;SDS011;46892;45.668;11.756;2024-02-26T10:09:37;8.32;;;5.03;;
55312;SDS011;46892;45.668;11.756;2024-02-26T10:12:03;9.13;;;5.23;;
55312;SDS011;46892;45.668;11.756;2024-02-26T10:14:30;7.73;;;5.30;;
55312;SDS011;46892;45.668;11.756;2024-02-26T10:16:56;7.17;;;4.43;;
55312;SDS011;46892;45.668;11.756;2024-02-26T10:19:25;6.80;;;4.20;;
55312;SDS011;46892;45.668;11.756;2024-02-26T10:21:58;9.97;;;6.40;;
55312;SDS011;46892;45.668;11.756;2024-02-26T10:24:25;6.68;;;4.25;;
55312;SDS011;46892;45.668;11.756;2024-02-26T10:26:52;5.67;;;4.27;;
55312;SDS011;46892;45.668;11.756;2024-02-26T10:29:19;8.53;;;4.53;;
55312;SDS011;46892;45.668;11.756;2024-02-26T10:31:45;6.40;;;4.03;;
55312;SDS011;46892;45.668;11.756;2024-02-26T10:34:11;4.77;;;3.10;;
55312;SDS011;46892;45.668;11.756;2024-02-26T10:36:38;8.17;;;5.80;;
55312;SDS011;46892;45.668;11.756;2024-02-26T10:39:07;8.20;;;5.33;;
55312;SDS011;46892;45.668;11.756;2024-02-26T10:41:33;6.57;;;3.90;;
55312;SDS011;46892;45.668;11.756;2024-02-26T10:43:59;6.90;;;4.70;;
55312;SDS011;46892;45.668;11.756;2024-02-26T10:46:25;7.13;;;4.63;;
55312;SDS011;46892;45.668;11.756;2024-02-26T10:48:51;7.10;;;4.27;;
55312;SDS011;46892;45.668;11.756;2024-02-26T10:51:28;8.67;;;4.60;;
55312;SDS011;46892;45.668;11.756;2024-02-26T10:53:59;8.17;;;4.57;;
55312;SDS011;46892;45.668;11.756;2024-02-26T10:56:29;7.33;;;4.23;;
55312;SDS011;46892;45.668;11.756;2024-02-26T10:58:58;8.90;;;4.10;;
55312;SDS011;46892;45.668;11.756;2024-02-26T11:01:25;8.17;;;4.30;;
55312;SDS011;46892;45.668;11.756;2024-02-26T11:03:55;6.97;;;4.57;;
55312;SDS011;46892;45.668;11.756;2024-02-26T11:06:21;8.90;;;4.70;;
55312;SDS011;46892;45.668;11.756;2024-02-26T11:08:48;7.27;;;4.40;;
55312;SDS011;46892;45.668;11.756;2024-02-26T11:11:15;9.17;;;4.77;;
55312;SDS011;46892;45.668;11.756;2024-02-26T11:13:46;7.55;;;4.38;;
55312;SDS011;46892;45.668;11.756;2024-02-26T11:16:20;8.63;;;4.80;;
55312;SDS011;46892;45.668;11.756;2024-02-26T11:18:47;8.20;;;4.87;;
55312;SDS011;46892;45.668;11.756;2024-02-26T11:21:17;8.73;;;7.10;;
55312;SDS011;46892;45.668;11.756;2024-02-26T11:23:52;6.23;;;4.43;;
55312;SDS011;46892;45.668;11.756;2024-02-26T11:26:19;9.17;;;4.97;;
55312;SDS011;46892;45.668;11.756;2024-02-26T11:28:46;8.10;;;4.60;;
55312;SDS011;46892;45.668;11.756;2024-02-26T11:31:13;7.07;;;5.03;;
55312;SDS011;46892;45.668;11.756;2024-02-26T11:33:39;9.40;;;4.90;;
55312;SDS011;46892;45.668;11.756;2024-02-26T11:36:09;7.43;;;5.33;;
55312;SDS011;46892;45.668;11.756;2024-02-26T11:38:35;7.47;;;4.47;;
55312;SDS011;46892;45.668;11.756;2024-02-26T11:41:02;8.43;;;4.63;;
55312;SDS011;46892;45.668;11.756;2024-02-26T11:46:41;8.13;;;4.73;;
55312;SDS011;46892;45.668;11.756;2024-02-26T11:51:56;10.17;;;4.97;;
55312;SDS011;46892;45.668;11.756;2024-02-26T11:54:47;8.17;;;4.43;;
55312;SDS011;46892;45.668;11.756;2024-02-26T11:57:28;8.87;;;5.27;;
55312;SDS011;46892;45.668;11.756;2024-02-26T12:00:16;7.33;;;5.20;;
55312;SDS011;46892;45.668;11.756;2024-02-26T12:05:17;7.70;;;4.77;;
55312;SDS011;46892;45.668;11.756;2024-02-26T12:07:54;7.93;;;5.00;;
55312;SDS011;46892;45.668;11.756;2024-02-26T12:10:28;7.20;;;4.83;;
55312;SDS011;46892;45.668;11.756;2024-02-26T12:13:05;8.40;;;5.67;;
55312;SDS011;46892;45.668;11.756;2024-02-26T12:15:36;9.33;;;5.43;;
55312;SDS011;46892;45.668;11.756;2024-02-26T12:18:03;7.13;;;5.00;;
55312;SDS011;46892;45.668;11.756;2024-02-26T12:20:30;7.57;;;5.10;;
55312;SDS011;46892;45.668;11.756;2024-02-26T12:22:56;8.27;;;5.30;;
55312;SDS011;46892;45.668;11.756;2024-02-26T12:25:23;7.70;;;5.27;;
55312;SDS011;46892;45.668;11.756;2024-02-26T12:27:54;6.20;;;4.90;;
55312;SDS011;46892;45.668;11.756;2024-02-26T12:30:20;8.17;;;4.80;;
55312;SDS011;46892;45.668;11.756;2024-02-26T12:32:49;6.90;;;4.97;;
55312;SDS011;46892;45.668;11.756;2024-02-26T12:35:16;8.25;;;4.70;;
55312;SDS011;46892;45.668;11.756;2024-02-26T12:37:45;7.77;;;4.93;;
55312;SDS011;46892;45.668;11.756;2024-02-26T12:40:11;9.03;;;5.20;;
55312;SDS011;46892;45.668;11.756;2024-02-26T12:42:38;8.07;;;5.43;;
55312;SDS011;46892;45.668;11.756;2024-02-26T12:45:06;6.63;;;4.60;;
55312;SDS011;46892;45.668;11.756;2024-02-26T12:50:06;7.73;;;4.50;;
55312;SDS011;46892;45.668;11.756;2024-02-26T12:52:33;8.23;;;4.67;;
55312;SDS011;46892;45.668;11.756;2024-02-26T12:55:08;8.67;;;4.70;;
55312;SDS011;46892;45.668;11.756;2024-02-26T12:57:37;8.73;;;4.70;;
55312;SDS011;46892;45.668;11.756;2024-02-26T13:00:07;43.67;;;25.03;;
55312;SDS011;46892;45.668;11.756;2024-02-26T13:02:36;6.20;;;4.97;;
55312;SDS011;46892;45.668;11.756;2024-02-26T13:05:03;8.70;;;4.80;;
55312;SDS011;46892;45.668;11.756;2024-02-26T13:07:31;6.60;;;4.33;;
55312;SDS011;46892;45.668;11.756;2024-02-26T13:09:56;6.93;;;5.27;;
55312;SDS011;46892;45.668;11.756;2024-02-26T13:12:23;10.70;;;5.20;;
55312;SDS011;46892;45.668;11.756;2024-02-26T13:14:58;8.77;;;5.53;;
55312;SDS011;46892;45.668;11.756;2024-02-26T13:17:25;15.60;;;9.80;;
55312;SDS011;46892;45.668;11.756;2024-02-26T13:19:53;7.70;;;5.40;;
55312;SDS011;46892;45.668;11.756;2024-02-26T13:22:20;6.90;;;4.93;;
55312;SDS011;46892;45.668;11.756;2024-02-26T13:24:54;6.70;;;4.20;;
55312;SDS011;46892;45.668;11.756;2024-02-26T13:27:24;9.57;;;4.10;;
55312;SDS011;46892;45.668;11.756;2024-02-26T13:30:03;8.27;;;4.30;;
55312;SDS011;46892;45.668;11.756;2024-02-26T13:32:33;8.25;;;5.00;;
55312;SDS011;46892;45.668;11.756;2024-02-26T13:35:04;8.27;;;4.97;;
55312;SDS011;46892;45.668;11.756;2024-02-26T13:37:34;6.90;;;4.50;;
55312;SDS011;46892;45.668;11.756;2024-02-26T13:40:00;7.97;;;4.80;;
55312;SDS011;46892;45.668;11.756;2024-02-26T13:42:34;9.30;;;4.97;;
55312;SDS011;46892;45.668;11.756;2024-02-26T13:45:00;8.03;;;4.83;;
55312;SDS011;46892;45.668;11.756;2024-02-26T13:47:26;10.00;;;6.67;;
55312;SDS011;46892;45.668;11.756;2024-02-26T13:49:52;9.97;;;5.77;;
55312;SDS011;46892;45.668;11.756;2024-02-26T13:52:18;10.23;;;6.43;;
55312;SDS011;46892;45.668;11.756;2024-02-26T13:54:45;10.03;;;4.70;;
55312;SDS011;46892;45.668;11.756;2024-02-26T13:57:11;7.83;;;4.93;;
55312;SDS011;46892;45.668;11.756;2024-02-26T13:59:37;7.50;;;5.20;;
55312;SDS011;46892;45.668;11.756;2024-02-26T14:02:07;7.37;;;5.20;;
55312;SDS011;46892;45.668;11.756;2024-02-26T14:04:36;7.13;;;5.03;;
55312;SDS011;46892;45.668;11.756;2024-02-26T14:07:02;7.97;;;5.40;;
55312;SDS011;46892;45.668;11.756;2024-02-26T14:09:29;11.17;;;5.40;;
55312;SDS011;46892;45.668;11.756;2024-02-26T14:11:55;9.80;;;5.80;;
55312;SDS011;46892;45.668;11.756;2024-02-26T14:14:20;10.33;;;6.83;;
55312;SDS011;46892;45.668;11.756;2024-02-26T14:16:46;9.33;;;6.17;;
55312;SDS011;46892;45.668;11.756;2024-02-26T14:19:12;9.37;;;6.10;;
55312;SDS011;46892;45.668;11.756;2024-02-26T14:21:38;8.03;;;5.20;;
55312;SDS011;46892;45.668;11.756;2024-02-26T14:24:04;7.80;;;5.30;;
55312;SDS011;46892;45.668;11.756;2024-02-26T14:26:30;10.60;;;6.10;;
55312;SDS011;46892;45.668;11.756;2024-02-26T14:28:56;6.57;;;4.40;;
55312;SDS011;46892;45.668;11.756;2024-02-26T14:31:22;8.97;;;5.70;;
55312;SDS011;46892;45.668;11.756;2024-02-26T14:33:47;10.73;;;5.93;;
55312;SDS011;46892;45.668;11.756;2024-02-26T14:36:13;9.07;;;5.87;;
55312;SDS011;46892;45.668;11.756;2024-02-26T14:38:39;11.93;;;4.40;;